Time;durP1;ratioP1;P1;durP2;ratioP2;P2;SDS_P1;SDS_P2;PMS_P1;PMS_P2;Temp;Humidity;BMP_temperature;BMP_pressure;BME280_temperature;BME280_humidity;BME280_pressure;Samples;Min_cycle;Max_cycle;Signal;HPM_P1;HPM_P2
2022/02/15 00:01:03;;;;;;;1.05;1.00;;;6.80;99.90;;;;;;5091794;28;20199;-86
2022/02/15 00:03:31;;;;;;;1.33;1.23;;;;;;;;;;5095424;28;20227;-85
2022/02/15 00:05:58;;;;;;;2.55;1.33;;;6.60;97.60;;;;;;5100190;28;20776;-85
2022/02/15 00:08:25;;;;;;;1.30;1.20;;;6.60;97.90;;;;;;5091823;28;20222;-85
2022/02/15 00:10:52;;;;;;;1.60;1.50;;;6.60;98.10;;;;;;5098962;28;20851;-85
2022/02/15 00:13:20;;;;;;;1.20;1.10;;;6.50;98.10;;;;;;5105079;28;20277;-85
2022/02/15 00:15:47;;;;;;;2.08;1.70;;;6.80;99.90;;;;;;5097011;28;20229;-86
2022/02/15 00:18:14;;;;;;;1.48;1.38;;;6.60;99.90;;;;;;5109625;28;20277;-85
2022/02/15 00:20:44;;;;;;;1.85;1.60;;;6.70;99.90;;;;;;5104216;28;20225;-85
2022/02/15 00:23:11;;;;;;;2.10;2.00;;;8.20;98.70;;;;;;5106780;28;20209;-85
2022/02/15 00:25:38;;;;;;;1.40;1.30;;;6.50;99.90;;;;;;5093195;28;20765;-85
2022/02/15 00:28:06;;;;;;;1.92;1.75;;;7.10;99.90;;;;;;5099157;28;20195;-85
2022/02/15 00:30:34;;;;;;;2.33;1.92;;;6.70;97.80;;;;;;5101812;28;20551;-85
2022/02/15 00:33:01;;;;;;;1.92;1.67;;;6.60;98.00;;;;;;5091263;28;20222;-85
2022/02/15 00:35:28;;;;;;;1.80;1.70;;;6.40;97.90;;;;;;5106042;28;20194;-85
2022/02/15 00:37:55;;;;;;;2.55;1.73;;;6.40;99.90;;;;;;5111231;28;20276;-85
2022/02/15 00:40:22;;;;;;;1.70;1.58;;;6.40;98.10;;;;;;5097344;28;20231;-85
2022/02/15 00:42:49;;;;;;;2.15;1.85;;;6.40;98.20;;;;;;5091436;28;20203;-85
2022/02/15 00:45:16;;;;;;;2.05;1.80;;;6.20;99.90;;;;;;5103010;28;20570;-85
2022/02/15 00:47:44;;;;;;;1.88;1.60;;;6.40;98.40;;;;;;5111031;28;20194;-85
2022/02/15 00:50:11;;;;;;;2.03;1.83;;;6.30;98.50;;;;;;5107619;28;20192;-85
2022/02/15 00:52:38;;;;;;;1.92;1.83;;;6.10;99.80;;;;;;5093699;28;20190;-85
2022/02/15 00:55:08;;;;;;;1.85;1.75;;;6.40;98.50;;;;;;5086069;28;20369;-86
2022/02/15 00:57:36;;;;;;;2.35;2.15;;;;;;;;;;5099032;28;20652;-85
2022/02/15 01:00:04;;;;;;;1.88;1.75;;;6.80;99.90;;;;;;5095956;28;20262;-86
2022/02/15 01:02:31;;;;;;;1.90;1.63;;;6.50;98.30;;;;;;5111409;28;20602;-86
2022/02/15 01:04:59;;;;;;;2.95;2.05;;;6.50;99.90;;;;;;5099002;28;20333;-86
2022/02/15 01:07:26;;;;;;;3.83;2.35;;;6.40;98.40;;;;;;5090473;28;20194;-85
2022/02/15 01:09:54;;;;;;;1.88;1.60;;;6.40;98.40;;;;;;5097307;28;20187;-86
2022/02/15 01:12:22;;;;;;;2.05;1.75;;;7.00;98.80;;;;;;5096361;28;20190;-85
2022/02/15 01:14:50;;;;;;;1.88;1.77;;;6.40;99.90;;;;;;5107629;28;20598;-85
2022/02/15 01:17:17;;;;;;;2.03;1.92;;;6.40;98.50;;;;;;5098383;28;20201;-85
2022/02/15 01:19:45;;;;;;;3.33;2.20;;;6.30;98.50;;;;;;5103465;28;20194;-85
2022/02/15 01:22:15;;;;;;;2.90;2.28;;;6.30;98.50;;;;;;5098879;28;20539;-85
2022/02/15 01:24:42;;;;;;;2.53;1.83;;;6.30;98.50;;;;;;5107906;28;20198;-85
2022/02/15 01:27:11;;;;;;;1.65;1.50;;;6.40;99.90;;;;;;5110169;28;20201;-85
2022/02/15 01:29:38;;;;;;;2.53;2.22;;;6.20;99.90;;;;;;5100607;28;20248;-85
2022/02/15 01:32:07;;;;;;;1.85;1.75;;;6.50;98.50;;;;;;5106104;28;20190;-85
2022/02/15 01:34:34;;;;;;;1.70;1.60;;;6.40;99.90;;;;;;5092480;28;20190;-85
2022/02/15 01:37:01;;;;;;;2.30;1.85;;;6.20;98.40;;;;;;5109295;28;20219;-85
2022/02/15 01:39:29;;;;;;;2.20;2.00;;;6.20;99.90;;;;;;5099085;28;20231;-85
2022/02/15 01:41:56;;;;;;;5.75;2.25;;;6.10;98.20;;;;;;5103055;28;20196;-85
2022/02/15 01:44:23;;;;;;;1.73;1.63;;;6.10;98.30;;;;;;5102222;28;20202;-85
2022/02/15 01:46:50;;;;;;;1.45;1.35;;;5.40;99.90;;;;;;5089793;28;20246;-85
2022/02/15 01:49:17;;;;;;;1.70;1.60;;;5.90;98.60;;;;;;5109623;28;20186;-85
2022/02/15 01:51:44;;;;;;;1.50;1.40;;;6.00;98.60;;;;;;5107606;28;20198;-85
2022/02/15 01:54:11;;;;;;;3.10;1.65;;;5.40;99.90;;;;;;5103431;28;20190;-84
2022/02/15 01:56:39;;;;;;;5.68;1.65;;;6.00;98.60;;;;;;5089853;28;20202;-85
2022/02/15 01:59:06;;;;;;;2.33;1.73;;;6.00;98.60;;;;;;5095566;28;20212;-85
2022/02/15 02:01:33;;;;;;;1.60;1.50;;;6.00;98.60;;;;;;5103740;28;20243;-85
2022/02/15 02:04:00;;;;;;;1.45;1.35;;;5.90;98.60;;;;;;5090279;28;20194;-85
2022/02/15 02:06:26;;;;;;;1.98;1.77;;;5.90;98.80;;;;;;5093656;28;20296;-85
2022/02/15 02:08:54;;;;;;;4.10;1.75;;;6.00;98.70;;;;;;5109271;28;20851;-86
2022/02/15 02:11:22;;;;;;;1.40;1.30;;;6.00;99.10;;;;;;5098195;28;20246;-85
2022/02/15 02:13:51;;;;;;;2.75;1.83;;;6.00;98.90;;;;;;5103611;28;20202;-85
2022/02/15 02:16:29;;;;;;;3.55;1.77;;;5.90;98.50;;;;;;5087206;28;20305;-85
2022/02/15 02:18:56;;;;;;;1.70;1.52;;;6.00;99.50;;;;;;5103748;28;20288;-85
2022/02/15 02:21:35;;;;;;;3.13;1.70;;;5.70;98.70;;;;;;5091753;28;20252;-84
2022/02/15 02:24:02;;;;;;;2.50;1.80;;;5.80;98.80;;;;;;5068962;28;20203;-85
2022/02/15 02:26:29;;;;;;;2.22;1.75;;;5.80;99.90;;;;;;5084330;28;20313;-85
2022/02/15 02:28:56;;;;;;;1.60;1.50;;;5.70;98.90;;;;;;5089458;28;20195;-86
2022/02/15 02:31:23;;;;;;;1.98;1.48;;;5.50;99.00;;;;;;5100028;28;20194;-85
2022/02/15 02:33:51;;;;;;;3.05;1.77;;;5.70;99.90;;;;;;5089507;28;20209;-85
2022/02/15 02:36:18;;;;;;;2.17;1.75;;;5.70;98.70;;;;;;5090301;28;20240;-85
2022/02/15 02:38:47;;;;;;;1.90;1.80;;;6.10;99.90;;;;;;5104579;28;20664;-85
2022/02/15 02:41:14;;;;;;;3.30;1.90;;;5.60;99.00;;;;;;5101607;28;20190;-85
2022/02/15 02:43:41;;;;;;;1.73;1.60;;;5.60;99.50;;;;;;5109250;28;20194;-85
2022/02/15 02:46:08;;;;;;;2.58;1.90;;;5.70;99.90;;;;;;5103662;28;20617;-86
2022/02/15 02:48:35;;;;;;;2.92;2.08;;;5.70;99.00;;;;;;5108967;28;20197;-85
2022/02/15 02:51:02;;;;;;;2.55;1.85;;;5.60;98.80;;;;;;5091791;28;20567;-85
2022/02/15 02:53:29;;;;;;;2.85;1.85;;;5.60;99.00;;;;;;5088847;28;20269;-85
2022/02/15 02:55:57;;;;;;;3.25;1.65;;;5.50;99.20;;;;;;5085011;28;20197;-85
2022/02/15 02:58:24;;;;;;;2.10;1.70;;;5.70;99.90;;;;;;5101638;28;20194;-85
2022/02/15 03:00:51;;;;;;;5.72;1.92;;;5.60;99.90;;;;;;5098836;28;20214;-85
2022/02/15 03:03:18;;;;;;;2.22;1.83;;;;;;;;;;5100901;28;20190;-85
2022/02/15 03:05:45;;;;;;;2.33;2.05;;;5.50;98.90;;;;;;5091204;28;20221;-85
2022/02/15 03:08:12;;;;;;;4.70;2.05;;;5.60;99.20;;;;;;5100512;28;20194;-85
2022/02/15 03:10:39;;;;;;;1.98;1.75;;;5.60;99.10;;;;;;5105558;28;20408;-85
2022/02/15 03:13:07;;;;;;;6.45;1.80;;;5.50;99.50;;;;;;5107033;28;20733;-85
2022/02/15 03:15:34;;;;;;;2.17;1.98;;;5.60;99.00;;;;;;5107421;28;20277;-85
2022/02/15 03:18:01;;;;;;;1.88;1.77;;;5.60;99.20;;;;;;5110693;28;20753;-85
2022/02/15 03:20:28;;;;;;;2.38;1.70;;;5.60;99.10;;;;;;5105691;28;20211;-84
2022/02/15 03:22:55;;;;;;;2.22;1.85;;;5.70;99.10;;;;;;5101250;28;20276;-85
2022/02/15 03:25:22;;;;;;;2.20;2.00;;;5.70;98.90;;;;;;5105993;28;20190;-85
2022/02/15 03:27:49;;;;;;;2.20;1.65;;;5.70;98.90;;;;;;5112185;28;20198;-85
2022/02/15 03:30:17;;;;;;;2.35;1.88;;;5.70;99.00;;;;;;5108985;28;20259;-85
2022/02/15 03:32:44;;;;;;;2.03;1.83;;;5.80;98.90;;;;;;5112345;28;20917;-85
2022/02/15 03:35:11;;;;;;;2.08;1.88;;;5.70;98.80;;;;;;5110892;28;20229;-85
2022/02/15 03:37:38;;;;;;;2.58;1.90;;;5.80;98.80;;;;;;5103035;28;20534;-85
2022/02/15 03:40:06;;;;;;;2.95;1.33;;;5.60;99.90;;;;;;5092677;28;20889;-85
2022/02/15 03:45:20;;;;;;;3.22;2.20;;;5.80;98.90;;;;;;5097337;28;20198;-85
2022/02/15 03:47:47;;;;;;;2.45;2.00;;;5.80;98.80;;;;;;5103697;28;20308;-85
2022/02/15 03:50:14;;;;;;;1.92;1.75;;;5.80;98.80;;;;;;5096647;28;20194;-85
2022/02/15 03:52:40;;;;;;;6.68;2.20;;;5.60;99.90;;;;;;5104965;28;20222;-85
2022/02/15 03:55:08;;;;;;;2.75;1.90;;;5.80;98.60;;;;;;5111642;28;20255;-84
2022/02/15 03:57:35;;;;;;;2.60;1.50;;;5.80;98.70;;;;;;5108250;27;20194;-85
2022/02/15 04:00:04;;;;;;;3.00;2.10;;;5.70;99.90;;;;;;5075536;28;20193;-85
2022/02/15 04:02:32;;;;;;;4.65;2.17;;;5.80;98.70;;;;;;5094933;28;20255;-85
2022/02/15 04:04:59;;;;;;;2.25;2.03;;;5.90;98.70;;;;;;5102591;28;20263;-85
2022/02/15 04:07:26;;;;;;;4.05;2.40;;;5.90;99.90;;;;;;5093470;28;20253;-85
2022/02/15 04:09:53;;;;;;;3.58;2.25;;;5.80;98.70;;;;;;5092404;28;20241;-85
2022/02/15 04:12:20;;;;;;;2.47;1.77;;;5.90;99.90;;;;;;5092704;28;20201;-85
2022/02/15 04:14:50;;;;;;;4.28;1.90;;;5.70;99.90;;;;;;5098422;28;20281;-87
2022/02/15 04:17:17;;;;;;;2.17;1.98;;;5.80;98.60;;;;;;5110686;28;20727;-85
2022/02/15 04:19:45;;;;;;;2.13;1.92;;;5.90;99.90;;;;;;5107594;28;20247;-85
2022/02/15 04:22:13;;;;;;;2.20;2.00;;;5.80;98.60;;;;;;5104786;28;20838;-85
2022/02/15 04:24:40;;;;;;;2.17;2.00;;;5.90;98.60;;;;;;5093052;28;20760;-85
2022/02/15 04:27:07;;;;;;;3.75;3.13;;;5.80;98.50;;;;;;5100672;28;20218;-85
2022/02/15 04:29:34;;;;;;;4.03;2.08;;;;;;;;;;5090228;28;20247;-86
2022/02/15 04:32:03;;;;;;;3.03;2.22;;;5.80;98.40;;;;;;5107140;28;20342;-85
2022/02/15 04:34:30;;;;;;;2.55;2.35;;;5.50;99.90;;;;;;5094702;28;20233;-85
2022/02/15 04:36:58;;;;;;;3.38;2.90;;;6.20;99.90;;;;;;5110875;28;20197;-85
2022/02/15 04:39:28;;;;;;;3.20;2.90;;;8.10;99.80;;;;;;5105861;28;20195;-85
2022/02/15 04:41:55;;;;;;;3.10;2.50;;;5.70;99.90;;;;;;5103017;28;20282;-86
2022/02/15 04:44:21;;;;;;;3.80;2.22;;;5.80;99.90;;;;;;5106041;28;20289;-85
2022/02/15 04:46:50;;;;;;;3.95;2.25;;;5.70;98.50;;;;;;5110296;27;20294;-84
2022/02/15 04:49:17;;;;;;;4.22;2.47;;;5.70;98.70;;;;;;5106804;28;20423;-85
2022/02/15 04:51:44;;;;;;;3.20;2.72;;;5.80;98.70;;;;;;5097737;28;20663;-85
2022/02/15 04:54:13;;;;;;;4.90;2.70;;;5.70;98.60;;;;;;5098776;28;20273;-85
2022/02/15 04:56:40;;;;;;;2.92;2.50;;;5.80;98.50;;;;;;5106642;28;20689;-86
2022/02/15 04:59:07;;;;;;;4.70;2.50;;;5.80;98.60;;;;;;5090183;28;20183;-85
2022/02/15 05:01:34;;;;;;;2.95;2.60;;;5.90;99.90;;;;;;5103147;28;20190;-84
2022/02/15 05:04:01;;;;;;;2.70;2.47;;;5.60;99.90;;;;;;5092120;28;20644;-85
2022/02/15 05:06:28;;;;;;;3.40;2.78;;;5.80;98.30;;;;;;5109444;28;20248;-84
2022/02/15 05:08:54;;;;;;;5.20;3.28;;;5.80;99.60;;;;;;5095023;28;20198;-85
2022/02/15 05:11:23;;;;;;;3.22;2.65;;;5.70;98.50;;;;;;5097657;28;20190;-85
2022/02/15 05:13:50;;;;;;;4.60;2.70;;;5.10;99.50;;;;;;5098517;28;20210;-85
2022/02/15 05:16:17;;;;;;;3.10;2.80;;;5.70;99.90;;;;;;5074565;28;20302;-85
2022/02/15 05:18:44;;;;;;;5.43;3.15;;;5.80;98.50;;;;;;5110803;28;20198;-85
2022/02/15 05:21:10;;;;;;;2.60;2.38;;;5.90;99.90;;;;;;5098537;28;20195;-85
2022/02/15 05:23:37;;;;;;;2.85;2.35;;;5.70;98.30;;;;;;5105952;28;20218;-85
2022/02/15 05:26:04;;;;;;;2.83;2.58;;;5.70;98.30;;;;;;5097548;28;20194;-85
2022/02/15 05:28:33;;;;;;;3.10;2.33;;;5.80;98.30;;;;;;5098075;28;20186;-84
2022/02/15 05:31:01;;;;;;;2.90;2.70;;;5.90;98.40;;;;;;5100341;28;20554;-85
2022/02/15 05:33:29;;;;;;;3.65;2.40;;;5.80;98.40;;;;;;5110254;28;20584;-84
2022/02/15 05:35:56;;;;;;;3.33;2.33;;;5.80;98.50;;;;;;5090177;28;20346;-85
2022/02/15 05:38:22;;;;;;;2.20;2.00;;;5.60;99.90;;;;;;5095163;28;20783;-86
2022/02/15 05:40:49;;;;;;;3.08;2.38;;;5.80;99.90;;;;;;5090270;28;20198;-83
2022/02/15 05:43:16;;;;;;;2.85;2.20;;;5.70;99.90;;;;;;5068119;28;20249;-83
2022/02/15 05:45:44;;;;;;;2.33;2.03;;;5.80;98.50;;;;;;5070866;28;20606;-84
2022/02/15 05:48:11;;;;;;;3.28;2.30;;;5.80;98.60;;;;;;5068644;28;20330;-83
2022/02/15 05:50:50;;;;;;;1.73;1.63;;;5.80;98.50;;;;;;5082256;28;20195;-83
2022/02/15 05:53:17;;;;;;;2.88;2.22;;;5.80;98.50;;;;;;5086046;28;20735;-83
2022/02/15 05:55:44;;;;;;;2.70;2.15;;;5.90;98.40;;;;;;5078231;28;20586;-84
2022/02/15 05:58:11;;;;;;;2.15;1.92;;;5.90;98.50;;;;;;5080254;28;20253;-83
2022/02/15 06:00:38;;;;;;;2.50;2.33;;;5.90;98.40;;;;;;5074583;28;20271;-83
2022/02/15 06:04:09;;;;;;;2.97;2.00;;;5.90;98.50;;;;;;5083626;28;20201;-84
2022/02/15 06:05:53;;;;;;;1.38;1.27;;;5.80;98.50;;;;;;5084568;28;20209;-84
2022/02/15 06:08:20;;;;;;;4.85;2.55;;;5.90;99.90;;;;;;5067623;28;20318;-84
2022/02/15 06:10:47;;;;;;;2.50;2.20;;;5.90;98.60;;;;;;5077492;28;20239;-83
2022/02/15 06:13:14;;;;;;;2.03;1.90;;;5.80;98.60;;;;;;5085302;28;20771;-83
2022/02/15 06:15:41;;;;;;;2.60;1.95;;;5.80;98.60;;;;;;5077889;28;20198;-84
2022/02/15 06:18:10;;;;;;;3.33;2.65;;;5.80;98.50;;;;;;5078764;28;20203;-84
2022/02/15 06:20:37;;;;;;;2.38;2.08;;;;;;;;;;5087633;28;20202;-83
2022/02/15 06:23:04;;;;;;;1.98;1.75;;;6.30;99.90;;;;;;5082423;28;20218;-84
2022/02/15 06:25:32;;;;;;;2.25;2.05;;;5.80;98.50;;;;;;5087899;28;20683;-83
2022/02/15 06:27:59;;;;;;;2.10;1.90;;;5.90;99.90;;;;;;5070893;28;20223;-83
2022/02/15 06:30:26;;;;;;;2.15;1.90;;;5.90;98.60;;;;;;5088039;28;20195;-84
2022/02/15 06:32:55;;;;;;;3.58;2.00;;;5.60;99.90;;;;;;5085108;28;20293;-83
2022/02/15 06:35:23;;;;;;;3.08;1.77;;;5.90;99.90;;;;;;5087289;28;20239;-83
2022/02/15 06:37:53;;;;;;;3.20;2.17;;;5.90;99.90;;;;;;5094997;28;20218;-84
2022/02/15 06:40:22;;;;;;;3.95;2.45;;;5.70;99.90;;;;;;5095712;28;20278;-83
2022/02/15 06:42:49;;;;;;;1.75;1.65;;;5.80;99.90;;;;;;5099873;28;20292;-83
2022/02/15 06:45:17;;;;;;;4.13;2.42;;;5.40;99.90;;;;;;5106356;28;20251;-84
2022/02/15 06:47:51;;;;;;;1.63;1.52;;;5.70;99.90;;;;;;5095520;28;20769;-85
2022/02/15 06:50:29;;;;;;;3.65;2.83;;;5.80;99.90;;;;;;5096391;28;20193;-84
2022/02/15 06:52:56;;;;;;;4.40;2.50;;;;;;;;;;5098315;28;20203;-84
2022/02/15 06:55:23;;;;;;;3.78;1.95;;;;;;;;;;5100986;28;20209;-83
2022/02/15 06:57:50;;;;;;;2.67;2.47;;;5.20;99.90;;;;;;5099694;28;20273;-84
2022/02/15 07:00:18;;;;;;;2.67;2.47;;;5.70;99.90;;;;;;5102529;27;20187;-84
2022/02/15 07:02:45;;;;;;;4.82;2.70;;;5.70;99.90;;;;;;5091482;28;20664;-83
2022/02/15 07:05:18;;;;;;;3.25;2.95;;;6.00;99.90;;;;;;5102125;28;20222;-84
2022/02/15 07:07:48;;;;;;;3.50;3.20;;;5.40;99.90;;;;;;5100514;28;20221;-86
2022/02/15 07:10:15;;;;;;;3.13;2.83;;;5.80;99.90;;;;;;5086935;28;20202;-84
2022/02/15 07:12:42;;;;;;;3.17;2.92;;;5.60;99.90;;;;;;5089954;28;20598;-85
2022/02/15 07:15:10;;;;;;;3.15;2.63;;;5.60;99.90;;;;;;5091090;28;20237;-84
2022/02/15 07:17:37;;;;;;;3.38;3.05;;;5.50;99.90;;;;;;5092297;28;20187;-84
2022/02/15 07:20:06;;;;;;;3.38;2.90;;;5.70;99.90;;;;;;5091257;28;20199;-85
2022/02/15 07:22:33;;;;;;;3.00;2.80;;;5.50;99.90;;;;;;5097084;28;20197;-85
2022/02/15 07:25:01;;;;;;;4.05;2.50;;;5.50;99.90;;;;;;5111622;28;20597;-85
2022/02/15 07:27:30;;;;;;;2.83;2.53;;;5.50;99.90;;;;;;5094305;28;20222;-85
2022/02/15 07:29:57;;;;;;;2.42;2.22;;;5.50;99.90;;;;;;5111219;28;20202;-85
2022/02/15 07:32:24;;;;;;;4.95;2.70;;;5.50;99.90;;;;;;5109792;28;20237;-85
2022/02/15 07:34:51;;;;;;;2.08;1.95;;;5.70;99.90;;;;;;5111668;27;20216;-85
2022/02/15 07:37:19;;;;;;;3.08;2.72;;;5.60;99.90;;;;;;5105632;28;20198;-85
2022/02/15 07:39:46;;;;;;;2.97;2.45;;;5.70;99.90;;;;;;5090534;28;20228;-85
2022/02/15 07:42:14;;;;;;;3.35;2.50;;;5.70;99.90;;;;;;5092331;28;22135;-85
2022/02/15 07:44:41;;;;;;;2.63;2.42;;;;;;;;;;5091059;28;20265;-85
2022/02/15 07:47:08;;;;;;;6.40;3.15;;;5.80;99.90;;;;;;5091181;28;20246;-85
2022/02/15 07:49:41;;;;;;;5.55;2.50;;;5.80;99.90;;;;;;5110193;28;20198;-83
2022/02/15 07:52:08;;;;;;;3.88;2.58;;;5.90;99.90;;;;;;5104464;28;20226;-85
2022/02/15 07:54:37;;;;;;;3.65;3.03;;;5.90;99.90;;;;;;5093933;28;21013;-84
2022/02/15 07:57:05;;;;;;;4.32;2.97;;;6.00;99.90;;;;;;5092635;28;20218;-85
2022/02/15 07:59:34;;;;;;;3.88;3.28;;;5.90;99.90;;;;;;5095792;28;20208;-84
2022/02/15 08:02:01;;;;;;;5.40;3.15;;;5.90;99.90;;;;;;5106453;27;20663;-84
2022/02/15 08:04:28;;;;;;;4.65;3.10;;;5.90;99.90;;;;;;5090530;28;20197;-85
2022/02/15 08:06:55;;;;;;;3.00;2.80;;;5.90;99.90;;;;;;5099963;28;20201;-84
2022/02/15 08:09:24;;;;;;;3.75;2.97;;;5.90;99.90;;;;;;5088180;28;20293;-85
2022/02/15 08:11:55;;;;;;;2.72;2.50;;;5.90;99.90;;;;;;5090446;28;20239;-85
2022/02/15 08:14:23;;;;;;;3.35;3.10;;;5.10;99.90;;;;;;5105831;28;20213;-84
2022/02/15 08:16:53;;;;;;;5.70;2.30;;;6.00;99.90;;;;;;5104298;28;20273;-84
2022/02/15 08:19:25;;;;;;;2.33;2.03;;;6.10;99.90;;;;;;5090650;28;20203;-85
2022/02/15 08:21:54;;;;;;;2.35;1.88;;;5.90;99.90;;;;;;5092862;28;20212;-84
2022/02/15 08:24:21;;;;;;;2.20;1.75;;;6.00;99.90;;;;;;5091361;28;20195;-84
2022/02/15 08:26:48;;;;;;;1.63;1.50;;;5.90;99.90;;;;;;5099618;28;20787;-85
2022/02/15 08:29:15;;;;;;;1.80;1.50;;;6.00;99.90;;;;;;5094007;27;20268;-85
2022/02/15 08:31:42;;;;;;;2.70;1.55;;;6.00;99.90;;;;;;5091485;28;20206;-84
2022/02/15 08:34:11;;;;;;;1.90;1.65;;;6.10;99.90;;;;;;5090259;28;20194;-84
2022/02/15 08:36:38;;;;;;;2.53;1.73;;;6.30;99.90;;;;;;5103352;28;20677;-85
2022/02/15 08:39:06;;;;;;;1.98;1.60;;;6.20;99.90;;;;;;5098572;28;20215;-85
2022/02/15 08:41:33;;;;;;;1.90;1.40;;;6.30;99.90;;;;;;5098552;28;20190;-84
2022/02/15 08:44:00;;;;;;;1.05;1.05;;;6.30;99.90;;;;;;5111731;28;20258;-84
2022/02/15 08:46:28;;;;;;;3.25;1.77;;;6.20;99.90;;;;;;5093893;28;20299;-85
2022/02/15 08:48:55;;;;;;;1.52;1.30;;;6.20;99.90;;;;;;5096916;28;20324;-84
2022/02/15 08:51:23;;;;;;;1.98;1.80;;;6.40;99.90;;;;;;5105924;28;20230;-84
2022/02/15 08:53:51;;;;;;;2.22;2.05;;;6.50;99.90;;;;;;5090909;28;20297;-84
2022/02/15 08:56:18;;;;;;;3.33;1.45;;;6.40;99.90;;;;;;5091392;28;20199;-85
2022/02/15 08:58:45;;;;;;;1.95;1.70;;;6.40;99.90;;;;;;5097876;28;20194;-85
2022/02/15 09:01:12;;;;;;;1.60;1.40;;;8.30;99.90;;;;;;5096568;28;20198;-85
2022/02/15 09:03:39;;;;;;;3.90;1.48;;;6.40;99.90;;;;;;5092110;28;20206;-85
2022/02/15 09:06:07;;;;;;;4.13;1.95;;;6.40;99.90;;;;;;5091692;28;20189;-84
2022/02/15 09:08:36;;;;;;;1.80;1.50;;;6.40;99.90;;;;;;5105080;28;20317;-83
2022/02/15 09:11:03;;;;;;;1.70;1.35;;;6.30;99.90;;;;;;5088776;28;20264;-84
2022/02/15 09:13:31;;;;;;;1.50;1.40;;;6.40;99.90;;;;;;5100328;28;20198;-85
2022/02/15 09:15:58;;;;;;;1.65;1.50;;;6.40;99.90;;;;;;5092272;28;20260;-84
2022/02/15 09:18:25;;;;;;;2.70;1.42;;;6.40;99.90;;;;;;5091948;28;20206;-84
2022/02/15 09:20:55;;;;;;;1.42;1.33;;;6.30;99.90;;;;;;5097798;28;20263;-84
2022/02/15 09:23:22;;;;;;;1.40;1.13;;;;;;;;;;5104410;27;20264;-85
2022/02/15 09:25:51;;;;;;;2.92;1.75;;;6.30;99.90;;;;;;5090938;28;20244;-84
2022/02/15 09:28:18;;;;;;;2.05;1.05;;;6.30;99.90;;;;;;5105201;28;20218;-84
2022/02/15 09:30:46;;;;;;;1.40;1.30;;;6.40;99.90;;;;;;5096703;28;20276;-84
2022/02/15 09:33:13;;;;;;;1.63;1.50;;;6.50;99.90;;;;;;5094329;28;20217;-84
2022/02/15 09:35:40;;;;;;;2.30;1.77;;;6.70;99.90;;;;;;5108743;28;20198;-84
2022/02/15 09:38:07;;;;;;;2.60;2.35;;;6.40;99.90;;;;;;5097293;28;20194;-84
2022/02/15 09:40:34;;;;;;;6.57;1.80;;;6.50;99.90;;;;;;5090962;28;20264;-84
2022/02/15 09:43:02;;;;;;;1.80;1.65;;;6.50;99.90;;;;;;5087891;28;20226;-84
2022/02/15 09:45:29;;;;;;;3.20;1.33;;;6.90;99.90;;;;;;5099154;28;20191;-84
2022/02/15 09:47:57;;;;;;;1.63;1.50;;;6.90;99.40;;;;;;5102087;28;20621;-84
2022/02/15 09:50:25;;;;;;;1.63;1.30;;;7.00;99.90;;;;;;5097382;28;20572;-84
2022/02/15 09:52:52;;;;;;;1.70;1.60;;;7.00;99.10;;;;;;5111809;28;20290;-83
2022/02/15 09:55:19;;;;;;;2.28;1.92;;;7.00;98.40;;;;;;5106077;28;20218;-84
2022/02/15 09:57:46;;;;;;;1.95;1.52;;;6.90;99.90;;;;;;5104722;28;20229;-84
2022/02/15 10:00:16;;;;;;;2.13;1.65;;;6.90;98.30;;;;;;5091287;28;20271;-84
2022/02/15 10:02:43;;;;;;;2.05;1.83;;;7.10;98.80;;;;;;5106780;28;20683;-84
2022/02/15 10:05:15;;;;;;;1.67;1.58;;;7.20;97.30;;;;;;5103572;28;20282;-84
2022/02/15 10:07:46;;;;;;;1.90;1.80;;;7.30;97.30;;;;;;5092064;28;20568;-84
2022/02/15 10:10:14;;;;;;;2.05;1.85;;;7.40;97.40;;;;;;5097491;28;20207;-84
2022/02/15 10:12:41;;;;;;;2.35;2.00;;;7.30;97.30;;;;;;5092091;28;20233;-84
2022/02/15 10:15:10;;;;;;;1.85;1.75;;;7.50;97.10;;;;;;5090947;28;20750;-83
2022/02/15 10:17:44;;;;;;;2.00;1.80;;;7.60;97.50;;;;;;5099755;28;20216;-84
2022/02/15 10:20:12;;;;;;;2.35;1.83;;;7.50;96.00;;;;;;5091313;28;20206;-83
2022/02/15 10:22:39;;;;;;;1.90;1.80;;;7.10;99.40;;;;;;5110397;28;20220;-84
2022/02/15 10:25:07;;;;;;;1.90;1.80;;;7.30;96.30;;;;;;5109875;28;20347;-84
2022/02/15 10:27:35;;;;;;;4.10;1.50;;;7.20;94.70;;;;;;5091834;28;20207;-84
2022/02/15 10:30:05;;;;;;;2.28;1.63;;;5.90;98.30;;;;;;5103253;28;20202;-84
2022/02/15 10:32:32;;;;;;;1.40;1.30;;;7.20;94.30;;;;;;5115991;27;20259;-85
2022/02/15 10:35:01;;;;;;;1.80;1.52;;;7.30;97.90;;;;;;5105892;28;20678;-84
2022/02/15 10:37:29;;;;;;;9.38;2.95;;;7.20;93.80;;;;;;5106842;28;20226;-84
2022/02/15 10:39:59;;;;;;;3.50;1.80;;;7.10;94.00;;;;;;5095235;28;20191;-83
2022/02/15 10:42:28;;;;;;;1.85;1.50;;;7.20;94.30;;;;;;5097230;28;20226;-84
2022/02/15 10:45:00;;;;;;;1.60;1.50;;;7.00;94.00;;;;;;5097409;28;20259;-84
2022/02/15 10:47:28;;;;;;;1.60;1.50;;;6.90;99.20;;;;;;5098417;28;20202;-83
2022/02/15 10:49:57;;;;;;;1.80;1.67;;;6.90;94.30;;;;;;5114848;28;20218;-84
2022/02/15 10:52:26;;;;;;;2.42;1.45;;;6.90;93.80;;;;;;5099487;28;20263;-84
2022/02/15 10:54:53;;;;;;;1.75;1.65;;;6.90;97.60;;;;;;5097359;28;20328;-84
2022/02/15 10:57:22;;;;;;;1.50;1.40;;;6.90;94.10;;;;;;5093964;28;20199;-84
2022/02/15 10:59:52;;;;;;;1.77;1.67;;;7.10;95.60;;;;;;5103708;28;20219;-84
2022/02/15 11:02:22;;;;;;;1.17;1.10;;;7.00;94.40;;;;;;5096195;28;20198;-84
2022/02/15 11:04:50;;;;;;;1.75;1.65;;;7.00;98.40;;;;;;5096511;28;20256;-84
2022/02/15 11:07:18;;;;;;;2.90;1.10;;;6.90;98.20;;;;;;5114871;28;20281;-83
2022/02/15 11:09:58;;;;;;;1.15;1.05;;;7.00;92.80;;;;;;5113004;28;20218;-84
2022/02/15 11:12:32;;;;;;;2.55;1.63;;;7.20;98.00;;;;;;5114058;28;20193;-84
2022/02/15 11:15:02;;;;;;;1.50;1.02;;;7.20;92.90;;;;;;5105738;28;20625;-84
2022/02/15 11:17:29;;;;;;;2.10;1.45;;;7.20;92.20;;;;;;5093951;28;21004;-83
2022/02/15 11:20:01;;;;;;;2.53;1.17;;;7.20;91.90;;;;;;5105315;28;20202;-83
2022/02/15 11:22:30;;;;;;;2.88;1.30;;;7.30;92.20;;;;;;5094935;28;20198;-84
2022/02/15 11:24:58;;;;;;;1.35;1.25;;;7.50;92.20;;;;;;5108028;28;20194;-84
2022/02/15 11:27:25;;;;;;;1.08;1.08;;;7.30;91.80;;;;;;5094803;28;20222;-84
2022/02/15 11:29:55;;;;;;;1.20;1.10;;;7.50;96.30;;;;;;5111396;28;20260;-84
2022/02/15 11:32:26;;;;;;;3.85;1.90;;;7.60;96.30;;;;;;5095661;28;20226;-83
2022/02/15 11:34:54;;;;;;;2.25;1.83;;;7.50;91.60;;;;;;5095191;28;20214;-84
2022/02/15 11:37:22;;;;;;;2.78;1.55;;;7.70;92.60;;;;;;5094568;28;20234;-84
2022/02/15 11:40:02;;;;;;;5.28;1.85;;;7.40;92.40;;;;;;5097232;28;20202;-83
2022/02/15 11:42:29;;;;;;;1.67;1.38;;;7.50;91.00;;;;;;5095680;28;20218;-84
2022/02/15 11:44:56;;;;;;;4.75;1.80;;;7.50;91.30;;;;;;5098043;28;20195;-84
2022/02/15 11:47:29;;;;;;;1.45;1.35;;;7.50;92.20;;;;;;5097303;28;20620;-84
2022/02/15 11:49:58;;;;;;;1.60;1.25;;;7.60;91.60;;;;;;5077782;28;20227;-84
2022/02/15 11:52:27;;;;;;;1.40;1.30;;;7.40;90.70;;;;;;5078873;28;20226;-84
2022/02/15 11:55:04;;;;;;;1.55;1.42;;;7.30;90.40;;;;;;5085928;28;20375;-84
2022/02/15 11:57:31;;;;;;;1.77;1.67;;;7.40;90.20;;;;;;5097282;28;20254;-83
2022/02/15 11:59:59;;;;;;;1.40;1.30;;;7.40;90.00;;;;;;5114104;28;20231;-83
2022/02/15 12:02:26;;;;;;;1.63;1.35;;;7.20;90.90;;;;;;5109518;28;20199;-84
2022/02/15 12:04:54;;;;;;;1.42;1.33;;;7.40;89.40;;;;;;5113981;27;20194;-83
2022/02/15 12:07:25;;;;;;;2.13;1.10;;;7.50;88.70;;;;;;5112752;28;20285;-84
2022/02/15 12:09:55;;;;;;;2.78;1.20;;;7.50;88.60;;;;;;5101173;28;20315;-83
2022/02/15 12:12:29;;;;;;;1.10;1.10;;;7.60;89.40;;;;;;5093769;28;20202;-84
2022/02/15 12:14:57;;;;;;;1.52;1.42;;;7.80;93.80;;;;;;5091709;28;20286;-84
2022/02/15 12:17:25;;;;;;;1.88;1.50;;;7.70;88.60;;;;;;5092441;28;20240;-84
2022/02/15 12:19:56;;;;;;;1.88;1.67;;;7.80;88.20;;;;;;5108522;28;20241;-84
2022/02/15 12:22:27;;;;;;;3.15;1.95;;;7.90;89.00;;;;;;5094148;28;20302;-83
2022/02/15 12:24:55;;;;;;;4.57;1.98;;;8.20;93.10;;;;;;5105221;28;20230;-83
2022/02/15 12:27:25;;;;;;;1.92;1.75;;;7.90;90.90;;;;;;5102555;28;20245;-85
2022/02/15 12:29:53;;;;;;;2.20;1.80;;;7.90;92.90;;;;;;5091750;28;20234;-84
2022/02/15 12:32:24;;;;;;;4.60;1.67;;;8.10;92.80;;;;;;5091683;28;20203;-84
2022/02/15 12:34:52;;;;;;;1.77;1.67;;;8.00;86.50;;;;;;5097445;28;20669;-84
2022/02/15 12:37:20;;;;;;;2.95;1.90;;;8.00;85.60;;;;;;5091981;28;20808;-83
2022/02/15 12:39:48;;;;;;;2.72;1.80;;;7.90;90.50;;;;;;5108742;28;20236;-84
2022/02/15 12:42:17;;;;;;;2.65;1.90;;;7.70;90.40;;;;;;5091765;28;20207;-84
2022/02/15 12:44:57;;;;;;;2.13;1.70;;;7.60;88.90;;;;;;5088161;28;20919;-84
2022/02/15 12:47:24;;;;;;;2.70;1.88;;;7.60;89.60;;;;;;5104613;28;20678;-84
2022/02/15 12:49:53;;;;;;;1.77;1.67;;;7.60;89.70;;;;;;5111482;28;20218;-84
2022/02/15 12:52:21;;;;;;;1.50;1.40;;;7.80;92.00;;;;;;5095530;28;20571;-83
2022/02/15 12:54:52;;;;;;;2.30;1.80;;;7.70;90.80;;;;;;5111284;28;20249;-84
2022/02/15 12:57:23;;;;;;;4.55;2.30;;;7.80;90.80;;;;;;5095333;28;20222;-84
2022/02/15 12:59:55;;;;;;;3.80;2.10;;;7.90;91.40;;;;;;5110047;28;20224;-84
2022/02/15 13:02:27;;;;;;;2.80;2.28;;;7.80;90.00;;;;;;5095816;28;20244;-84
2022/02/15 13:04:58;;;;;;;2.70;2.10;;;7.90;90.10;;;;;;5090420;28;20294;-84
2022/02/15 13:07:26;;;;;;;2.47;2.20;;;8.00;89.80;;;;;;5105795;28;20190;-84